sensor_id;sensor_type;location;lat;lon;timestamp;temperature;humidity
14210;DHT22;7188;56.070;12.698;2023-04-25T00:01:21;8.60;99.90
14210;DHT22;7188;56.070;12.698;2023-04-25T00:04:08;8.50;99.90
14210;DHT22;7188;56.070;12.698;2023-04-25T00:06:35;8.50;99.90
14210;DHT22;7188;56.070;12.698;2023-04-25T00:09:02;8.50;99.90
14210;DHT22;7188;56.070;12.698;2023-04-25T00:11:29;8.40;99.90
14210;DHT22;7188;56.070;12.698;2023-04-25T00:13:56;8.40;99.90
14210;DHT22;7188;56.070;12.698;2023-04-25T00:16:22;8.50;99.90
14210;DHT22;7188;56.070;12.698;2023-04-25T00:18:49;8.60;99.90
14210;DHT22;7188;56.070;12.698;2023-04-25T00:21:18;8.50;99.90
14210;DHT22;7188;56.070;12.698;2023-04-25T00:23:45;8.50;99.90
14210;DHT22;7188;56.070;12.698;2023-04-25T00:26:11;8.60;99.90
14210;DHT22;7188;56.070;12.698;2023-04-25T00:28:38;8.60;99.90
14210;DHT22;7188;56.070;12.698;2023-04-25T00:31:04;8.60;99.90
14210;DHT22;7188;56.070;12.698;2023-04-25T00:33:30;8.60;99.90
14210;DHT22;7188;56.070;12.698;2023-04-25T00:35:56;8.60;99.90
14210;DHT22;7188;56.070;12.698;2023-04-25T00:38:21;8.60;99.90
14210;DHT22;7188;56.070;12.698;2023-04-25T00:40:47;8.50;99.90
14210;DHT22;7188;56.070;12.698;2023-04-25T00:43:13;8.60;99.90
14210;DHT22;7188;56.070;12.698;2023-04-25T00:45:39;8.60;99.90
14210;DHT22;7188;56.070;12.698;2023-04-25T00:48:06;8.60;99.90
14210;DHT22;7188;56.070;12.698;2023-04-25T00:50:35;8.60;99.90
14210;DHT22;7188;56.070;12.698;2023-04-25T00:53:01;8.60;99.90
14210;DHT22;7188;56.070;12.698;2023-04-25T00:55:28;8.60;99.90
14210;DHT22;7188;56.070;12.698;2023-04-25T00:57:54;8.60;99.90
14210;DHT22;7188;56.070;12.698;2023-04-25T01:00:20;8.60;99.90
14210;DHT22;7188;56.070;12.698;2023-04-25T01:02:46;8.60;99.90
14210;DHT22;7188;56.070;12.698;2023-04-25T01:05:12;8.60;99.90
14210;DHT22;7188;56.070;12.698;2023-04-25T01:07:39;8.60;99.90
14210;DHT22;7188;56.070;12.698;2023-04-25T01:10:05;8.60;99.90
14210;DHT22;7188;56.070;12.698;2023-04-25T01:12:31;8.60;99.90
14210;DHT22;7188;56.070;12.698;2023-04-25T01:14:57;8.60;99.90
14210;DHT22;7188;56.070;12.698;2023-04-25T01:17:23;8.60;99.90
14210;DHT22;7188;56.070;12.698;2023-04-25T01:19:49;8.50;99.90
14210;DHT22;7188;56.070;12.698;2023-04-25T01:22:16;8.60;99.90
14210;DHT22;7188;56.070;12.698;2023-04-25T01:24:42;8.60;99.90
14210;DHT22;7188;56.070;12.698;2023-04-25T01:27:08;8.50;99.90
14210;DHT22;7188;56.070;12.698;2023-04-25T01:29:35;8.60;99.90
14210;DHT22;7188;56.070;12.698;2023-04-25T01:32:01;8.50;99.90
14210;DHT22;7188;56.070;12.698;2023-04-25T01:34:27;8.50;99.90
14210;DHT22;7188;56.070;12.698;2023-04-25T01:36:53;8.60;99.90
14210;DHT22;7188;56.070;12.698;2023-04-25T01:39:19;8.50;99.90
14210;DHT22;7188;56.070;12.698;2023-04-25T01:41:49;8.50;99.90
14210;DHT22;7188;56.070;12.698;2023-04-25T01:44:15;8.50;99.90
14210;DHT22;7188;56.070;12.698;2023-04-25T01:46:41;8.50;99.90
14210;DHT22;7188;56.070;12.698;2023-04-25T01:49:07;8.50;99.90
14210;DHT22;7188;56.070;12.698;2023-04-25T01:51:32;8.50;99.90
14210;DHT22;7188;56.070;12.698;2023-04-25T01:53:58;8.60;99.90
14210;DHT22;7188;56.070;12.698;2023-04-25T01:56:24;8.50;99.90
14210;DHT22;7188;56.070;12.698;2023-04-25T01:58:51;8.50;99.90
14210;DHT22;7188;56.070;12.698;2023-04-25T02:01:17;8.50;99.90
14210;DHT22;7188;56.070;12.698;2023-04-25T02:03:43;8.50;99.90
14210;DHT22;7188;56.070;12.698;2023-04-25T02:06:08;8.50;99.90
14210;DHT22;7188;56.070;12.698;2023-04-25T02:08:34;8.50;99.90
14210;DHT22;7188;56.070;12.698;2023-04-25T02:11:00;8.50;99.90
14210;DHT22;7188;56.070;12.698;2023-04-25T02:13:25;8.60;99.90
14210;DHT22;7188;56.070;12.698;2023-04-25T02:15:51;8.70;99.90
14210;DHT22;7188;56.070;12.698;2023-04-25T02:18:17;8.70;99.90
14210;DHT22;7188;56.070;12.698;2023-04-25T02:20:43;8.70;99.90
14210;DHT22;7188;56.070;12.698;2023-04-25T02:23:09;8.70;99.90
14210;DHT22;7188;56.070;12.698;2023-04-25T02:25:35;8.70;99.90
14210;DHT22;7188;56.070;12.698;2023-04-25T02:28:00;8.70;99.90
14210;DHT22;7188;56.070;12.698;2023-04-25T02:30:26;8.80;99.90
14210;DHT22;7188;56.070;12.698;2023-04-25T02:32:52;8.80;99.90
14210;DHT22;7188;56.070;12.698;2023-04-25T02:35:18;8.70;99.90
14210;DHT22;7188;56.070;12.698;2023-04-25T02:37:43;8.80;99.90
14210;DHT22;7188;56.070;12.698;2023-04-25T02:40:09;8.70;99.90
14210;DHT22;7188;56.070;12.698;2023-04-25T02:42:35;8.50;99.90
14210;DHT22;7188;56.070;12.698;2023-04-25T02:45:01;8.40;99.90
14210;DHT22;7188;56.070;12.698;2023-04-25T02:47:27;8.40;99.90
14210;DHT22;7188;56.070;12.698;2023-04-25T02:49:53;8.40;99.90
14210;DHT22;7188;56.070;12.698;2023-04-25T02:52:19;8.40;99.90
14210;DHT22;7188;56.070;12.698;2023-04-25T02:54:45;8.20;99.90
14210;DHT22;7188;56.070;12.698;2023-04-25T02:57:10;8.20;99.90
14210;DHT22;7188;56.070;12.698;2023-04-25T02:59:36;8.10;99.90
14210;DHT22;7188;56.070;12.698;2023-04-25T03:02:02;8.00;99.90
14210;DHT22;7188;56.070;12.698;2023-04-25T03:04:27;8.00;99.90
14210;DHT22;7188;56.070;12.698;2023-04-25T03:06:53;8.00;99.90
14210;DHT22;7188;56.070;12.698;2023-04-25T03:09:31;7.90;99.90
14210;DHT22;7188;56.070;12.698;2023-04-25T03:11:57;7.90;99.90
14210;DHT22;7188;56.070;12.698;2023-04-25T03:14:22;7.80;99.90
14210;DHT22;7188;56.070;12.698;2023-04-25T03:16:48;7.80;99.90
14210;DHT22;7188;56.070;12.698;2023-04-25T03:19:14;7.70;99.90
14210;DHT22;7188;56.070;12.698;2023-04-25T03:21:41;7.70;99.90
14210;DHT22;7188;56.070;12.698;2023-04-25T03:24:07;7.80;99.90
14210;DHT22;7188;56.070;12.698;2023-04-25T03:26:32;7.70;99.90
14210;DHT22;7188;56.070;12.698;2023-04-25T03:28:58;7.60;99.90
14210;DHT22;7188;56.070;12.698;2023-04-25T03:31:23;7.50;99.90
14210;DHT22;7188;56.070;12.698;2023-04-25T03:33:49;7.50;99.90
14210;DHT22;7188;56.070;12.698;2023-04-25T03:36:15;7.50;99.90
14210;DHT22;7188;56.070;12.698;2023-04-25T03:38:40;7.50;99.90
14210;DHT22;7188;56.070;12.698;2023-04-25T03:41:07;7.50;99.90
14210;DHT22;7188;56.070;12.698;2023-04-25T03:43:33;7.40;99.90
14210;DHT22;7188;56.070;12.698;2023-04-25T03:45:58;7.40;99.90
14210;DHT22;7188;56.070;12.698;2023-04-25T03:48:25;7.40;99.90
14210;DHT22;7188;56.070;12.698;2023-04-25T03:50:52;7.40;99.90
14210;DHT22;7188;56.070;12.698;2023-04-25T03:53:17;7.50;99.90
14210;DHT22;7188;56.070;12.698;2023-04-25T03:55:43;7.40;99.90
14210;DHT22;7188;56.070;12.698;2023-04-25T03:58:08;7.40;99.90
14210;DHT22;7188;56.070;12.698;2023-04-25T04:00:35;7.40;99.90
14210;DHT22;7188;56.070;12.698;2023-04-25T04:03:01;7.30;99.90
14210;DHT22;7188;56.070;12.698;2023-04-25T04:05:29;7.30;99.90
14210;DHT22;7188;56.070;12.698;2023-04-25T04:07:55;7.30;99.90
14210;DHT22;7188;56.070;12.698;2023-04-25T04:10:21;7.30;99.90
14210;DHT22;7188;56.070;12.698;2023-04-25T04:12:47;7.30;99.90
14210;DHT22;7188;56.070;12.698;2023-04-25T04:15:12;7.20;99.90
14210;DHT22;7188;56.070;12.698;2023-04-25T04:17:38;7.30;99.90
14210;DHT22;7188;56.070;12.698;2023-04-25T04:20:04;7.30;99.90
14210;DHT22;7188;56.070;12.698;2023-04-25T04:22:31;7.30;99.90
14210;DHT22;7188;56.070;12.698;2023-04-25T04:24:57;7.30;99.90
14210;DHT22;7188;56.070;12.698;2023-04-25T04:27:23;7.30;99.90
14210;DHT22;7188;56.070;12.698;2023-04-25T04:29:49;7.30;99.90
14210;DHT22;7188;56.070;12.698;2023-04-25T04:32:15;7.30;99.90
14210;DHT22;7188;56.070;12.698;2023-04-25T04:34:41;7.30;99.90
14210;DHT22;7188;56.070;12.698;2023-04-25T04:37:07;7.30;99.90
14210;DHT22;7188;56.070;12.698;2023-04-25T04:39:33;7.40;99.90
14210;DHT22;7188;56.070;12.698;2023-04-25T04:41:59;7.40;99.90
14210;DHT22;7188;56.070;12.698;2023-04-25T04:44:27;7.40;99.90
14210;DHT22;7188;56.070;12.698;2023-04-25T04:46:53;7.40;99.90
14210;DHT22;7188;56.070;12.698;2023-04-25T04:49:19;7.40;99.90
14210;DHT22;7188;56.070;12.698;2023-04-25T04:51:45;7.40;99.90
14210;DHT22;7188;56.070;12.698;2023-04-25T04:54:11;7.40;99.90
14210;DHT22;7188;56.070;12.698;2023-04-25T04:56:36;7.40;99.90
14210;DHT22;7188;56.070;12.698;2023-04-25T04:59:02;7.40;99.90
14210;DHT22;7188;56.070;12.698;2023-04-25T05:01:28;7.40;99.90
14210;DHT22;7188;56.070;12.698;2023-04-25T05:03:55;7.30;99.90
14210;DHT22;7188;56.070;12.698;2023-04-25T05:06:26;7.30;99.90
14210;DHT22;7188;56.070;12.698;2023-04-25T05:08:52;7.30;99.90
14210;DHT22;7188;56.070;12.698;2023-04-25T05:11:19;7.30;99.90
14210;DHT22;7188;56.070;12.698;2023-04-25T05:13:44;7.30;99.90
14210;DHT22;7188;56.070;12.698;2023-04-25T05:16:20;7.30;99.90
14210;DHT22;7188;56.070;12.698;2023-04-25T05:18:47;7.30;99.90
14210;DHT22;7188;56.070;12.698;2023-04-25T05:21:13;7.30;99.90
14210;DHT22;7188;56.070;12.698;2023-04-25T05:23:38;7.30;99.90
14210;DHT22;7188;56.070;12.698;2023-04-25T05:26:04;7.40;99.90
14210;DHT22;7188;56.070;12.698;2023-04-25T05:28:30;7.30;99.90
14210;DHT22;7188;56.070;12.698;2023-04-25T05:30:56;7.40;99.90
14210;DHT22;7188;56.070;12.698;2023-04-25T05:33:44;7.40;99.90
14210;DHT22;7188;56.070;12.698;2023-04-25T05:36:09;7.40;99.90
14210;DHT22;7188;56.070;12.698;2023-04-25T05:38:35;7.40;99.90
14210;DHT22;7188;56.070;12.698;2023-04-25T05:41:01;7.40;99.90
14210;DHT22;7188;56.070;12.698;2023-04-25T05:43:26;7.40;99.90
14210;DHT22;7188;56.070;12.698;2023-04-25T05:45:52;7.40;99.90
14210;DHT22;7188;56.070;12.698;2023-04-25T05:48:17;7.40;99.90
14210;DHT22;7188;56.070;12.698;2023-04-25T05:50:43;7.40;99.90
14210;DHT22;7188;56.070;12.698;2023-04-25T05:53:08;7.40;99.90
14210;DHT22;7188;56.070;12.698;2023-04-25T05:55:34;7.40;99.90
14210;DHT22;7188;56.070;12.698;2023-04-25T05:58:00;7.40;99.90
14210;DHT22;7188;56.070;12.698;2023-04-25T06:00:26;7.50;99.90
14210;DHT22;7188;56.070;12.698;2023-04-25T06:02:51;7.50;99.90
14210;DHT22;7188;56.070;12.698;2023-04-25T06:05:17;7.40;99.90
14210;DHT22;7188;56.070;12.698;2023-04-25T06:07:42;7.40;99.90
14210;DHT22;7188;56.070;12.698;2023-04-25T06:10:09;7.50;99.90
14210;DHT22;7188;56.070;12.698;2023-04-25T06:12:35;7.50;99.90
14210;DHT22;7188;56.070;12.698;2023-04-25T06:15:00;7.50;99.90
14210;DHT22;7188;56.070;12.698;2023-04-25T06:17:26;7.50;99.90
14210;DHT22;7188;56.070;12.698;2023-04-25T06:19:52;7.50;99.90
14210;DHT22;7188;56.070;12.698;2023-04-25T06:22:18;7.50;99.90
14210;DHT22;7188;56.070;12.698;2023-04-25T06:24:43;7.50;99.90
14210;DHT22;7188;56.070;12.698;2023-04-25T06:27:09;7.50;99.90
14210;DHT22;7188;56.070;12.698;2023-04-25T06:29:34;7.50;99.90
14210;DHT22;7188;56.070;12.698;2023-04-25T06:32:00;7.60;99.90
14210;DHT22;7188;56.070;12.698;2023-04-25T06:34:26;7.60;99.90
14210;DHT22;7188;56.070;12.698;2023-04-25T06:36:51;7.60;99.90
14210;DHT22;7188;56.070;12.698;2023-04-25T06:39:17;7.60;99.90
14210;DHT22;7188;56.070;12.698;2023-04-25T06:41:42;7.60;99.90
14210;DHT22;7188;56.070;12.698;2023-04-25T06:44:08;7.70;99.90
14210;DHT22;7188;56.070;12.698;2023-04-25T06:46:34;7.60;99.90
14210;DHT22;7188;56.070;12.698;2023-04-25T06:48:59;7.60;99.90
14210;DHT22;7188;56.070;12.698;2023-04-25T06:51:25;7.60;99.90
14210;DHT22;7188;56.070;12.698;2023-04-25T06:53:53;7.60;99.90
14210;DHT22;7188;56.070;12.698;2023-04-25T06:56:19;7.60;99.90
14210;DHT22;7188;56.070;12.698;2023-04-25T06:58:44;7.60;99.90
14210;DHT22;7188;56.070;12.698;2023-04-25T07:01:10;7.60;99.90
14210;DHT22;7188;56.070;12.698;2023-04-25T07:03:36;7.60;99.90
14210;DHT22;7188;56.070;12.698;2023-04-25T07:06:02;7.70;99.90
14210;DHT22;7188;56.070;12.698;2023-04-25T07:08:29;7.60;99.90
14210;DHT22;7188;56.070;12.698;2023-04-25T07:10:55;7.60;99.90
14210;DHT22;7188;56.070;12.698;2023-04-25T07:13:21;7.60;99.90
14210;DHT22;7188;56.070;12.698;2023-04-25T07:15:46;7.70;99.90
14210;DHT22;7188;56.070;12.698;2023-04-25T07:18:13;7.70;99.90
14210;DHT22;7188;56.070;12.698;2023-04-25T07:20:39;7.70;99.90
14210;DHT22;7188;56.070;12.698;2023-04-25T07:23:05;7.80;99.90
14210;DHT22;7188;56.070;12.698;2023-04-25T07:25:31;7.70;99.90
14210;DHT22;7188;56.070;12.698;2023-04-25T07:27:58;7.70;99.90
14210;DHT22;7188;56.070;12.698;2023-04-25T07:30:23;7.80;99.90
14210;DHT22;7188;56.070;12.698;2023-04-25T07:32:50;7.80;99.90
14210;DHT22;7188;56.070;12.698;2023-04-25T07:35:16;7.70;99.90
14210;DHT22;7188;56.070;12.698;2023-04-25T07:37:42;7.70;99.90
14210;DHT22;7188;56.070;12.698;2023-04-25T07:40:08;7.70;99.90
14210;DHT22;7188;56.070;12.698;2023-04-25T07:42:35;7.70;99.90
14210;DHT22;7188;56.070;12.698;2023-04-25T07:45:01;7.80;99.90
14210;DHT22;7188;56.070;12.698;2023-04-25T07:47:27;7.80;99.90
14210;DHT22;7188;56.070;12.698;2023-04-25T07:49:52;7.80;99.90
14210;DHT22;7188;56.070;12.698;2023-04-25T07:52:18;7.70;99.90
14210;DHT22;7188;56.070;12.698;2023-04-25T07:54:43;7.70;99.90
14210;DHT22;7188;56.070;12.698;2023-04-25T07:57:09;7.80;99.90
14210;DHT22;7188;56.070;12.698;2023-04-25T07:59:35;7.80;99.90
14210;DHT22;7188;56.070;12.698;2023-04-25T08:02:01;7.80;99.90
14210;DHT22;7188;56.070;12.698;2023-04-25T08:04:26;7.90;99.90
14210;DHT22;7188;56.070;12.698;2023-04-25T08:06:52;7.90;99.90
14210;DHT22;7188;56.070;12.698;2023-04-25T08:09:19;8.00;99.90
14210;DHT22;7188;56.070;12.698;2023-04-25T08:11:45;8.00;99.90
14210;DHT22;7188;56.070;12.698;2023-04-25T08:14:11;7.90;99.90
14210;DHT22;7188;56.070;12.698;2023-04-25T08:16:37;7.90;99.90
14210;DHT22;7188;56.070;12.698;2023-04-25T08:19:03;7.90;99.90
14210;DHT22;7188;56.070;12.698;2023-04-25T08:21:28;7.90;99.90
14210;DHT22;7188;56.070;12.698;2023-04-25T08:23:54;7.90;99.90
14210;DHT22;7188;56.070;12.698;2023-04-25T08:26:20;7.90;99.90
14210;DHT22;7188;56.070;12.698;2023-04-25T08:28:46;8.00;99.90
14210;DHT22;7188;56.070;12.698;2023-04-25T08:31:12;8.00;99.90
14210;DHT22;7188;56.070;12.698;2023-04-25T08:33:37;8.00;99.90
14210;DHT22;7188;56.070;12.698;2023-04-25T08:36:03;8.00;99.90
14210;DHT22;7188;56.070;12.698;2023-04-25T08:38:29;7.90;99.90
14210;DHT22;7188;56.070;12.698;2023-04-25T08:40:56;7.90;99.90
14210;DHT22;7188;56.070;12.698;2023-04-25T08:43:23;7.90;99.90
14210;DHT22;7188;56.070;12.698;2023-04-25T08:45:53;7.90;99.90
14210;DHT22;7188;56.070;12.698;2023-04-25T08:48:19;7.90;99.90
14210;DHT22;7188;56.070;12.698;2023-04-25T08:50:51;7.80;99.90
14210;DHT22;7188;56.070;12.698;2023-04-25T08:53:25;7.80;99.90
14210;DHT22;7188;56.070;12.698;2023-04-25T08:55:53;7.70;99.90
14210;DHT22;7188;56.070;12.698;2023-04-25T08:58:20;7.70;99.90
14210;DHT22;7188;56.070;12.698;2023-04-25T09:00:47;7.70;99.90
14210;DHT22;7188;56.070;12.698;2023-04-25T09:03:13;7.70;99.90
14210;DHT22;7188;56.070;12.698;2023-04-25T09:05:40;7.70;99.90
14210;DHT22;7188;56.070;12.698;2023-04-25T09:08:06;7.70;99.90
14210;DHT22;7188;56.070;12.698;2023-04-25T09:10:33;7.70;99.90
14210;DHT22;7188;56.070;12.698;2023-04-25T09:13:13;7.70;99.90
14210;DHT22;7188;56.070;12.698;2023-04-25T09:15:57;7.70;99.90
14210;DHT22;7188;56.070;12.698;2023-04-25T09:18:31;7.60;99.90
14210;DHT22;7188;56.070;12.698;2023-04-25T09:21:08;7.60;99.90
14210;DHT22;7188;56.070;12.698;2023-04-25T09:23:41;7.60;99.90
14210;DHT22;7188;56.070;12.698;2023-04-25T09:26:07;7.60;99.90
14210;DHT22;7188;56.070;12.698;2023-04-25T09:28:34;7.60;99.90
14210;DHT22;7188;56.070;12.698;2023-04-25T09:31:00;7.60;99.90
14210;DHT22;7188;56.070;12.698;2023-04-25T09:33:31;7.60;99.90
14210;DHT22;7188;56.070;12.698;2023-04-25T09:36:07;7.60;99.90
14210;DHT22;7188;56.070;12.698;2023-04-25T09:38:41;7.60;99.90
14210;DHT22;7188;56.070;12.698;2023-04-25T09:41:08;7.50;99.90
14210;DHT22;7188;56.070;12.698;2023-04-25T09:43:33;7.50;99.90
14210;DHT22;7188;56.070;12.698;2023-04-25T09:46:00;7.50;99.90
14210;DHT22;7188;56.070;12.698;2023-04-25T09:48:27;7.60;99.90
14210;DHT22;7188;56.070;12.698;2023-04-25T09:53:29;7.60;99.90
14210;DHT22;7188;56.070;12.698;2023-04-25T09:55:56;7.60;99.90
14210;DHT22;7188;56.070;12.698;2023-04-25T09:58:25;7.60;99.90
14210;DHT22;7188;56.070;12.698;2023-04-25T10:00:55;7.60;99.90
14210;DHT22;7188;56.070;12.698;2023-04-25T10:03:25;7.60;99.90
14210;DHT22;7188;56.070;12.698;2023-04-25T10:05:52;7.60;99.90
14210;DHT22;7188;56.070;12.698;2023-04-25T10:08:20;7.60;99.90
14210;DHT22;7188;56.070;12.698;2023-04-25T10:10:46;7.40;99.90
14210;DHT22;7188;56.070;12.698;2023-04-25T10:13:12;7.30;99.90
14210;DHT22;7188;56.070;12.698;2023-04-25T10:15:40;7.30;99.90
14210;DHT22;7188;56.070;12.698;2023-04-25T10:18:06;7.40;99.90
14210;DHT22;7188;56.070;12.698;2023-04-25T10:20:32;7.40;99.90
14210;DHT22;7188;56.070;12.698;2023-04-25T10:23:06;7.40;99.90
14210;DHT22;7188;56.070;12.698;2023-04-25T10:25:36;7.30;99.90
14210;DHT22;7188;56.070;12.698;2023-04-25T10:28:03;7.40;99.90
14210;DHT22;7188;56.070;12.698;2023-04-25T10:30:29;7.40;99.90
14210;DHT22;7188;56.070;12.698;2023-04-25T10:32:55;7.50;99.90
14210;DHT22;7188;56.070;12.698;2023-04-25T10:35:26;7.60;99.90
14210;DHT22;7188;56.070;12.698;2023-04-25T10:38:08;7.60;99.90
14210;DHT22;7188;56.070;12.698;2023-04-25T10:40:34;7.60;99.90
14210;DHT22;7188;56.070;12.698;2023-04-25T10:45:56;7.60;99.90
14210;DHT22;7188;56.070;12.698;2023-04-25T10:48:28;7.60;99.90
14210;DHT22;7188;56.070;12.698;2023-04-25T10:51:10;7.70;99.90
14210;DHT22;7188;56.070;12.698;2023-04-25T10:53:36;7.60;99.90
14210;DHT22;7188;56.070;12.698;2023-04-25T10:56:18;7.70;99.90
14210;DHT22;7188;56.070;12.698;2023-04-25T10:58:45;7.80;99.90
14210;DHT22;7188;56.070;12.698;2023-04-25T11:01:15;7.80;64.40
14210;DHT22;7188;56.070;12.698;2023-04-25T11:03:44;7.70;1.00
14210;DHT22;7188;56.070;12.698;2023-04-25T11:09:12;7.70;1.00
14210;DHT22;7188;56.070;12.698;2023-04-25T11:11:38;7.70;99.90
14210;DHT22;7188;56.070;12.698;2023-04-25T11:14:04;7.80;99.90
14210;DHT22;7188;56.070;12.698;2023-04-25T11:16:30;7.80;99.90
14210;DHT22;7188;56.070;12.698;2023-04-25T11:18:58;7.80;99.90
14210;DHT22;7188;56.070;12.698;2023-04-25T11:21:25;7.80;99.90
14210;DHT22;7188;56.070;12.698;2023-04-25T11:23:56;7.70;99.90
14210;DHT22;7188;56.070;12.698;2023-04-25T11:26:22;7.60;99.90
14210;DHT22;7188;56.070;12.698;2023-04-25T11:28:49;7.70;1.00
14210;DHT22;7188;56.070;12.698;2023-04-25T11:31:14;7.80;1.00
14210;DHT22;7188;56.070;12.698;2023-04-25T11:33:40;7.80;99.90
14210;DHT22;7188;56.070;12.698;2023-04-25T11:36:06;7.80;75.20
14210;DHT22;7188;56.070;12.698;2023-04-25T11:38:32;7.80;1.00
14210;DHT22;7188;56.070;12.698;2023-04-25T11:40:58;7.80;1.00
14210;DHT22;7188;56.070;12.698;2023-04-25T11:43:25;7.90;1.00
14210;DHT22;7188;56.070;12.698;2023-04-25T11:45:51;7.90;99.90
14210;DHT22;7188;56.070;12.698;2023-04-25T11:48:18;8.00;1.00
14210;DHT22;7188;56.070;12.698;2023-04-25T11:50:44;8.00;99.90
14210;DHT22;7188;56.070;12.698;2023-04-25T11:53:10;8.10;1.00
14210;DHT22;7188;56.070;12.698;2023-04-25T11:55:36;8.10;1.00
14210;DHT22;7188;56.070;12.698;2023-04-25T11:58:04;8.10;1.00
14210;DHT22;7188;56.070;12.698;2023-04-25T12:00:30;8.20;1.00
14210;DHT22;7188;56.070;12.698;2023-04-25T12:02:57;8.20;99.90
14210;DHT22;7188;56.070;12.698;2023-04-25T12:05:26;8.20;99.90
14210;DHT22;7188;56.070;12.698;2023-04-25T12:07:52;8.10;1.00
14210;DHT22;7188;56.070;12.698;2023-04-25T12:10:18;8.10;1.00
14210;DHT22;7188;56.070;12.698;2023-04-25T12:12:46;8.10;99.90
14210;DHT22;7188;56.070;12.698;2023-04-25T12:17:51;8.10;1.00
14210;DHT22;7188;56.070;12.698;2023-04-25T12:20:24;8.10;1.00
14210;DHT22;7188;56.070;12.698;2023-04-25T12:22:51;8.20;1.00
14210;DHT22;7188;56.070;12.698;2023-04-25T12:28:11;8.30;74.90
14210;DHT22;7188;56.070;12.698;2023-04-25T12:30:57;8.30;99.90
14210;DHT22;7188;56.070;12.698;2023-04-25T12:33:24;8.30;1.00
14210;DHT22;7188;56.070;12.698;2023-04-25T12:35:49;8.30;1.00
14210;DHT22;7188;56.070;12.698;2023-04-25T12:38:29;8.30;1.00
14210;DHT22;7188;56.070;12.698;2023-04-25T12:40:56;8.30;1.00
14210;DHT22;7188;56.070;12.698;2023-04-25T12:43:22;8.40;53.50
14210;DHT22;7188;56.070;12.698;2023-04-25T12:45:54;8.40;1.00
14210;DHT22;7188;56.070;12.698;2023-04-25T12:48:22;8.50;1.00
14210;DHT22;7188;56.070;12.698;2023-04-25T12:50:48;8.50;99.90
14210;DHT22;7188;56.070;12.698;2023-04-25T12:53:23;8.60;99.90
14210;DHT22;7188;56.070;12.698;2023-04-25T12:55:50;8.70;1.00
14210;DHT22;7188;56.070;12.698;2023-04-25T12:58:17;8.70;1.00
14210;DHT22;7188;56.070;12.698;2023-04-25T13:00:43;8.70;1.00
14210;DHT22;7188;56.070;12.698;2023-04-25T13:03:09;8.80;99.90
14210;DHT22;7188;56.070;12.698;2023-04-25T13:05:36;8.90;99.90
14210;DHT22;7188;56.070;12.698;2023-04-25T13:08:02;8.90;99.90
14210;DHT22;7188;56.070;12.698;2023-04-25T13:10:28;8.90;99.90
14210;DHT22;7188;56.070;12.698;2023-04-25T13:12:53;8.90;99.90
14210;DHT22;7188;56.070;12.698;2023-04-25T13:15:19;9.00;99.90
14210;DHT22;7188;56.070;12.698;2023-04-25T13:17:45;9.10;99.90
14210;DHT22;7188;56.070;12.698;2023-04-25T13:20:12;9.10;99.90
14210;DHT22;7188;56.070;12.698;2023-04-25T13:22:39;9.00;99.90
14210;DHT22;7188;56.070;12.698;2023-04-25T13:25:06;9.00;99.90
14210;DHT22;7188;56.070;12.698;2023-04-25T13:27:32;9.10;99.90
14210;DHT22;7188;56.070;12.698;2023-04-25T13:30:00;9.20;99.90
14210;DHT22;7188;56.070;12.698;2023-04-25T13:32:26;9.20;1.00
14210;DHT22;7188;56.070;12.698;2023-04-25T13:34:53;9.10;1.00
14210;DHT22;7188;56.070;12.698;2023-04-25T13:37:18;9.10;1.00
14210;DHT22;7188;56.070;12.698;2023-04-25T13:39:44;9.10;1.00
14210;DHT22;7188;56.070;12.698;2023-04-25T13:42:10;9.10;1.00
14210;DHT22;7188;56.070;12.698;2023-04-25T13:44:36;9.00;1.00
14210;DHT22;7188;56.070;12.698;2023-04-25T13:47:02;9.00;1.00
14210;DHT22;7188;56.070;12.698;2023-04-25T13:49:28;9.00;1.00
14210;DHT22;7188;56.070;12.698;2023-04-25T13:51:53;9.10;1.00
14210;DHT22;7188;56.070;12.698;2023-04-25T13:54:19;9.00;1.00
14210;DHT22;7188;56.070;12.698;2023-04-25T13:56:45;9.10;1.00
14210;DHT22;7188;56.070;12.698;2023-04-25T13:59:11;9.00;1.00
14210;DHT22;7188;56.070;12.698;2023-04-25T14:01:36;9.10;1.00
14210;DHT22;7188;56.070;12.698;2023-04-25T14:04:02;9.10;1.00
14210;DHT22;7188;56.070;12.698;2023-04-25T14:06:31;9.00;1.00
14210;DHT22;7188;56.070;12.698;2023-04-25T14:08:58;9.10;1.00
14210;DHT22;7188;56.070;12.698;2023-04-25T14:11:26;9.20;1.00
14210;DHT22;7188;56.070;12.698;2023-04-25T14:13:52;9.20;1.00
14210;DHT22;7188;56.070;12.698;2023-04-25T14:16:17;9.10;1.00
14210;DHT22;7188;56.070;12.698;2023-04-25T14:18:43;9.10;1.00
14210;DHT22;7188;56.070;12.698;2023-04-25T14:21:09;9.10;1.00
14210;DHT22;7188;56.070;12.698;2023-04-25T14:23:35;9.10;1.00
14210;DHT22;7188;56.070;12.698;2023-04-25T14:26:01;9.10;1.00
14210;DHT22;7188;56.070;12.698;2023-04-25T14:28:33;9.10;1.00
14210;DHT22;7188;56.070;12.698;2023-04-25T14:30:58;9.20;1.00
14210;DHT22;7188;56.070;12.698;2023-04-25T14:33:24;9.30;1.00
14210;DHT22;7188;56.070;12.698;2023-04-25T14:35:50;9.40;1.00
14210;DHT22;7188;56.070;12.698;2023-04-25T14:38:15;9.50;30.00
14210;DHT22;7188;56.070;12.698;2023-04-25T14:40:41;9.70;1.00
14210;DHT22;7188;56.070;12.698;2023-04-25T14:43:07;9.70;1.00
14210;DHT22;7188;56.070;12.698;2023-04-25T14:45:33;9.80;1.00
14210;DHT22;7188;56.070;12.698;2023-04-25T14:47:59;9.70;1.00
14210;DHT22;7188;56.070;12.698;2023-04-25T14:50:25;9.70;1.00
14210;DHT22;7188;56.070;12.698;2023-04-25T14:52:50;9.90;1.00
14210;DHT22;7188;56.070;12.698;2023-04-25T14:55:18;10.10;1.00
14210;DHT22;7188;56.070;12.698;2023-04-25T14:57:43;10.20;1.00
14210;DHT22;7188;56.070;12.698;2023-04-25T15:00:09;10.20;99.90
14210;DHT22;7188;56.070;12.698;2023-04-25T15:02:37;10.20;1.00
14210;DHT22;7188;56.070;12.698;2023-04-25T15:05:03;10.10;1.00
14210;DHT22;7188;56.070;12.698;2023-04-25T15:07:29;10.00;1.00
14210;DHT22;7188;56.070;12.698;2023-04-25T15:09:54;9.70;1.00
14210;DHT22;7188;56.070;12.698;2023-04-25T15:12:22;9.40;1.00
14210;DHT22;7188;56.070;12.698;2023-04-25T15:14:47;9.20;99.90
14210;DHT22;7188;56.070;12.698;2023-04-25T15:17:13;9.00;1.00
14210;DHT22;7188;56.070;12.698;2023-04-25T15:19:39;8.90;99.90
14210;DHT22;7188;56.070;12.698;2023-04-25T15:22:05;8.80;1.00
14210;DHT22;7188;56.070;12.698;2023-04-25T15:24:32;8.80;1.00
14210;DHT22;7188;56.070;12.698;2023-04-25T15:26:58;8.80;99.90
14210;DHT22;7188;56.070;12.698;2023-04-25T15:29:24;8.80;99.90
14210;DHT22;7188;56.070;12.698;2023-04-25T15:31:51;8.80;99.90
14210;DHT22;7188;56.070;12.698;2023-04-25T15:34:17;8.80;99.90
14210;DHT22;7188;56.070;12.698;2023-04-25T15:36:42;8.80;99.90
14210;DHT22;7188;56.070;12.698;2023-04-25T15:39:08;8.80;1.00
14210;DHT22;7188;56.070;12.698;2023-04-25T15:41:34;8.80;1.00
14210;DHT22;7188;56.070;12.698;2023-04-25T15:44:00;8.60;99.90
14210;DHT22;7188;56.070;12.698;2023-04-25T15:46:38;8.50;1.00
14210;DHT22;7188;56.070;12.698;2023-04-25T15:49:04;8.40;99.90
14210;DHT22;7188;56.070;12.698;2023-04-25T15:51:30;8.40;99.90
14210;DHT22;7188;56.070;12.698;2023-04-25T15:53:56;8.40;99.90
14210;DHT22;7188;56.070;12.698;2023-04-25T15:56:21;8.40;99.90
14210;DHT22;7188;56.070;12.698;2023-04-25T15:58:48;8.40;58.10
14210;DHT22;7188;56.070;12.698;2023-04-25T16:01:14;8.40;99.90